Time;durP1;ratioP1;P1;durP2;ratioP2;P2;SDS_P1;SDS_P2;PMS_P1;PMS_P2;Temp;Humidity;BMP_temperature;BMP_pressure;BME280_temperature;BME280_humidity;BME280_pressure;Samples;Min_cycle;Max_cycle;Signal;HPM_P1;HPM_P2
2021/03/10 00:02:22;;;;;;;27.63;16.77;;;2.60;97.50;;;;;;4391124;32;20152;-66
2021/03/10 00:04:49;;;;;;;30.50;17.90;;;2.60;97.50;;;;;;4389635;32;20205;-64
2021/03/10 00:07:15;;;;;;;28.20;17.17;;;2.70;97.60;;;;;;4391877;32;20148;-63
2021/03/10 00:09:42;;;;;;;30.13;17.40;;;2.80;97.60;;;;;;4390781;32;20248;-64
2021/03/10 00:12:09;;;;;;;24.13;15.43;;;2.80;97.50;;;;;;4393073;32;20156;-64
2021/03/10 00:14:36;;;;;;;29.90;17.93;;;2.80;97.30;;;;;;4390543;32;20228;-62
2021/03/10 00:17:02;;;;;;;30.90;17.93;;;2.80;97.10;;;;;;4391375;32;20159;-64
2021/03/10 00:19:29;;;;;;;27.80;17.13;;;2.70;97.10;;;;;;4393362;32;20638;-64
2021/03/10 00:21:56;;;;;;;28.97;18.20;;;2.70;97.30;;;;;;4393475;32;20165;-65
2021/03/10 00:24:22;;;;;;;29.10;17.47;;;2.80;97.40;;;;;;4390704;32;20227;-63
2021/03/10 00:26:51;;;;;;;25.50;16.97;;;2.90;97.40;;;;;;4391000;32;20157;-63
2021/03/10 00:29:17;;;;;;;28.90;17.37;;;3.00;97.20;;;;;;4389083;32;20716;-65
2021/03/10 00:31:43;;;;;;;26.47;16.07;;;3.10;96.90;;;;;;4393296;32;20283;-66
2021/03/10 00:34:10;;;;;;;26.80;16.57;;;3.10;96.70;;;;;;4394267;32;20255;-65
2021/03/10 00:36:36;;;;;;;27.53;17.00;;;3.10;96.40;;;;;;4391728;32;20219;-64
2021/03/10 00:39:03;;;;;;;24.87;15.03;;;3.00;96.30;;;;;;4390758;32;20182;-64
2021/03/10 00:41:30;;;;;;;24.60;15.33;;;2.90;96.20;;;;;;4393556;32;20167;-64
2021/03/10 00:43:57;;;;;;;26.50;15.53;;;2.80;96.20;;;;;;4393124;32;20211;-65
2021/03/10 00:46:23;;;;;;;24.97;15.90;;;2.70;96.30;;;;;;4394681;32;20176;-63
2021/03/10 00:48:50;;;;;;;22.27;14.97;;;2.70;96.40;;;;;;4390011;32;20189;-63
2021/03/10 00:51:16;;;;;;;22.80;14.50;;;2.60;96.50;;;;;;4393453;32;20185;-63
2021/03/10 00:53:42;;;;;;;26.20;16.57;;;2.60;96.60;;;;;;4397645;32;20167;-66
2021/03/10 00:56:09;;;;;;;24.73;15.10;;;2.50;96.60;;;;;;4393353;32;20155;-66
2021/03/10 00:58:35;;;;;;;25.77;14.77;;;2.50;96.70;;;;;;4393702;32;20160;-64
2021/03/10 01:01:02;;;;;;;23.43;14.60;;;2.40;96.70;;;;;;4394283;32;20238;-67
2021/03/10 01:03:29;;;;;;;28.87;16.27;;;2.40;96.70;;;;;;4389359;32;20273;-64
2021/03/10 01:05:55;;;;;;;27.77;16.17;;;2.30;96.80;;;;;;4391682;32;20249;-63
2021/03/10 01:08:22;;;;;;;24.00;15.13;;;2.30;96.80;;;;;;4389984;32;20202;-63
2021/03/10 01:10:49;;;;;;;23.77;13.93;;;2.30;96.90;;;;;;4389326;32;20293;-63
2021/03/10 01:13:16;;;;;;;24.50;15.53;;;2.20;97.00;;;;;;4389070;32;20219;-63
2021/03/10 01:15:43;;;;;;;26.10;15.77;;;2.20;97.00;;;;;;4394816;32;20651;-62
2021/03/10 01:18:11;;;;;;;24.27;14.77;;;2.20;97.10;;;;;;4389427;32;20171;-63
2021/03/10 01:20:37;;;;;;;20.37;13.83;;;2.30;97.20;;;;;;4393429;32;20682;-63
2021/03/10 01:23:05;;;;;;;21.77;13.87;;;2.30;97.30;;;;;;4390358;32;20215;-62
2021/03/10 01:25:31;;;;;;;23.03;14.67;;;2.30;97.30;;;;;;4393048;32;20191;-62
2021/03/10 01:27:58;;;;;;;25.87;14.73;;;2.40;97.30;;;;;;4396341;32;20175;-63
2021/03/10 01:30:25;;;;;;;22.13;14.00;;;2.50;97.20;;;;;;4393246;32;20230;-63
2021/03/10 01:32:51;;;;;;;19.80;13.27;;;2.70;97.10;;;;;;4394044;32;20630;-62
2021/03/10 01:35:20;;;;;;;22.90;14.37;;;2.70;96.90;;;;;;4393677;32;20175;-62
2021/03/10 01:37:46;;;;;;;22.80;14.37;;;2.80;96.70;;;;;;4392572;32;20215;-62
2021/03/10 01:40:15;;;;;;;23.50;14.63;;;2.90;96.40;;;;;;4394941;32;20216;-64
2021/03/10 01:42:42;;;;;;;21.80;13.63;;;3.00;96.30;;;;;;4395893;32;20179;-62
2021/03/10 01:45:09;;;;;;;21.00;13.03;;;3.00;96.10;;;;;;4394434;32;20176;-65
2021/03/10 01:47:39;;;;;;;19.50;13.67;;;3.00;95.80;;;;;;4393343;32;20167;-63
2021/03/10 01:50:07;;;;;;;18.60;12.23;;;3.10;95.70;;;;;;4393997;32;20207;-63
2021/03/10 01:52:35;;;;;;;21.13;13.20;;;3.10;95.60;;;;;;4394749;32;20231;-63
2021/03/10 01:55:02;;;;;;;19.70;12.50;;;3.20;95.60;;;;;;4395636;32;20211;-63
2021/03/10 01:57:28;;;;;;;22.03;13.80;;;3.20;95.50;;;;;;4395222;32;20571;-63
2021/03/10 01:59:56;;;;;;;20.03;12.63;;;3.20;95.40;;;;;;4395001;32;20204;-63
2021/03/10 02:02:23;;;;;;;20.00;12.70;;;3.30;95.50;;;;;;4395051;32;20152;-64
2021/03/10 02:04:52;;;;;;;20.00;13.83;;;3.40;95.50;;;;;;4399511;32;20176;-63
2021/03/10 02:07:28;;;;;;;19.37;12.53;;;3.40;95.40;;;;;;4392816;32;20155;-63
2021/03/10 02:10:03;;;;;;;20.33;12.97;;;3.50;95.40;;;;;;4392163;32;20156;-63
2021/03/10 02:12:38;;;;;;;19.83;12.63;;;3.50;95.40;;;;;;4392784;32;20234;-63
2021/03/10 02:15:12;;;;;;;21.70;14.87;;;3.60;95.40;;;;;;4395978;32;20154;-64
2021/03/10 02:17:43;;;;;;;20.67;13.13;;;3.70;95.50;;;;;;4392237;32;20587;-64
2021/03/10 02:20:33;;;;;;;21.90;13.40;;;3.70;95.30;;;;;;4393253;32;20179;-63
2021/03/10 02:23:36;;;;;;;19.63;12.10;;;3.70;95.20;;;;;;4391289;32;20180;-64
2021/03/10 02:26:16;;;;;;;18.13;12.03;;;3.70;95.00;;;;;;4392655;32;20214;-63
2021/03/10 02:28:44;;;;;;;20.57;12.60;;;3.80;94.90;;;;;;4396630;32;20580;-63
2021/03/10 02:31:12;;;;;;;19.40;12.63;;;3.80;94.90;;;;;;4392248;32;20536;-64
2021/03/10 02:33:40;;;;;;;20.17;13.13;;;3.80;94.90;;;;;;4394353;32;20607;-63
2021/03/10 02:36:10;;;;;;;19.73;12.97;;;3.90;94.90;;;;;;4395909;32;20580;-63
2021/03/10 02:38:40;;;;;;;19.23;12.53;;;3.90;94.80;;;;;;4404804;32;20156;-63
2021/03/10 02:41:07;;;;;;;18.80;13.37;;;3.90;94.90;;;;;;4397064;32;20152;-63
2021/03/10 02:43:34;;;;;;;17.80;11.97;;;3.90;94.70;;;;;;4406532;32;20159;-63
2021/03/10 02:46:05;;;;;;;20.13;12.57;;;4.00;94.80;;;;;;4405717;32;20164;-64
2021/03/10 02:48:32;;;;;;;17.97;12.27;;;4.00;94.80;;;;;;4406111;32;20228;-64
2021/03/10 02:50:58;;;;;;;21.43;13.33;;;4.00;94.70;;;;;;4402223;32;20484;-63
2021/03/10 02:53:25;;;;;;;19.97;12.67;;;4.10;94.80;;;;;;4406431;32;20180;-63
2021/03/10 02:55:52;;;;;;;20.93;13.40;;;4.10;94.70;;;;;;4403967;32;20263;-63
2021/03/10 02:58:19;;;;;;;19.13;13.57;;;4.00;94.50;;;;;;4396416;32;20533;-63
2021/03/10 03:00:45;;;;;;;19.53;12.70;;;4.00;94.60;;;;;;4398937;32;20216;-64
2021/03/10 03:03:13;;;;;;;19.93;13.33;;;4.00;94.80;;;;;;4400806;32;20268;-63
2021/03/10 03:05:39;;;;;;;18.63;12.87;;;4.00;94.80;;;;;;4399481;32;20589;-63
2021/03/10 03:08:06;;;;;;;21.23;14.27;;;4.00;94.70;;;;;;4406404;32;20160;-62
2021/03/10 03:10:36;;;;;;;21.90;13.83;;;4.00;94.40;;;;;;4404938;32;20212;-63
2021/03/10 03:13:06;;;;;;;24.83;14.50;;;3.90;94.50;;;;;;4405565;32;20638;-63
2021/03/10 03:15:33;;;;;;;23.33;14.23;;;3.90;94.80;;;;;;4403060;32;20169;-63
2021/03/10 03:18:01;;;;;;;21.13;14.57;;;3.80;95.10;;;;;;4402974;32;20171;-64
2021/03/10 03:20:28;;;;;;;21.43;14.37;;;3.60;95.10;;;;;;4404717;32;20283;-65
2021/03/10 03:22:56;;;;;;;22.73;15.70;;;3.60;95.70;;;;;;4399598;32;20222;-64
2021/03/10 03:25:33;;;;;;;22.47;13.93;;;3.50;95.80;;;;;;4404093;32;20196;-63
2021/03/10 03:28:02;;;;;;;23.80;14.77;;;3.50;95.70;;;;;;4399073;32;20151;-63
2021/03/10 03:30:31;;;;;;;23.13;15.47;;;3.40;95.80;;;;;;4401055;32;20482;-63
2021/03/10 03:32:59;;;;;;;31.23;17.77;;;3.40;96.00;;;;;;4394930;32;20228;-62
2021/03/10 03:35:26;;;;;;;24.00;16.17;;;3.40;95.90;;;;;;4405904;32;20194;-63
2021/03/10 03:37:54;;;;;;;25.00;16.57;;;3.50;95.90;;;;;;4405246;32;20168;-63
2021/03/10 03:40:26;;;;;;;24.47;16.43;;;3.40;95.90;;;;;;4398627;32;20621;-64
2021/03/10 03:42:53;;;;;;;23.40;15.33;;;3.40;95.90;;;;;;4398788;32;20210;-63
2021/03/10 03:45:21;;;;;;;28.03;16.57;;;3.40;95.90;;;;;;4403394;32;20494;-63
2021/03/10 03:47:50;;;;;;;24.83;17.13;;;3.30;96.10;;;;;;4394667;32;20183;-63
2021/03/10 03:50:16;;;;;;;24.97;16.73;;;3.30;96.10;;;;;;4402894;32;20159;-62
2021/03/10 03:52:43;;;;;;;27.93;16.70;;;3.30;96.20;;;;;;4402860;32;20171;-62
2021/03/10 03:55:12;;;;;;;29.27;17.77;;;3.30;96.20;;;;;;4394450;32;20230;-62
2021/03/10 03:57:39;;;;;;;26.90;16.43;;;3.40;96.40;;;;;;4406740;32;20556;-62
2021/03/10 04:00:08;;;;;;;27.17;18.17;;;3.40;96.40;;;;;;4396716;32;20215;-64
2021/03/10 04:02:34;;;;;;;26.37;16.63;;;3.50;96.30;;;;;;4402413;32;20206;-64
2021/03/10 04:05:00;;;;;;;25.67;16.77;;;3.50;96.30;;;;;;4404663;32;20624;-65
2021/03/10 04:07:27;;;;;;;28.40;18.10;;;3.60;96.30;;;;;;4404007;32;20167;-66
2021/03/10 04:09:53;;;;;;;26.70;17.00;;;3.60;96.10;;;;;;4395364;32;20157;-67
2021/03/10 04:12:21;;;;;;;29.90;18.30;;;3.60;96.00;;;;;;4405858;32;20636;-67
2021/03/10 04:14:47;;;;;;;25.30;16.60;;;3.70;96.00;;;;;;4404576;32;20212;-65
2021/03/10 04:17:14;;;;;;;28.93;17.77;;;3.60;96.00;;;;;;4404544;32;20185;-66
2021/03/10 04:19:41;;;;;;;28.43;18.13;;;3.60;96.10;;;;;;4403981;32;20592;-65
2021/03/10 04:22:07;;;;;;;26.37;17.23;;;3.60;96.10;;;;;;4398086;32;20175;-64
2021/03/10 04:24:34;;;;;;;25.47;17.13;;;3.60;96.10;;;;;;4399894;32;20172;-64
2021/03/10 04:27:01;;;;;;;27.47;17.67;;;3.60;96.10;;;;;;4393405;32;20148;-62
2021/03/10 04:29:28;;;;;;;28.47;17.73;;;3.60;96.20;;;;;;4397164;32;20505;-65
2021/03/10 04:31:57;;;;;;;32.83;18.57;;;3.60;96.30;;;;;;4397241;32;20220;-65
2021/03/10 04:34:23;;;;;;;30.37;18.23;;;3.60;96.30;;;;;;4399632;32;20202;-65
2021/03/10 04:36:49;;;;;;;30.93;18.13;;;3.60;96.60;;;;;;4401409;32;20251;-64
2021/03/10 04:39:18;;;;;;;28.80;17.63;;;3.60;96.30;;;;;;4401071;32;20202;-66
2021/03/10 04:41:44;;;;;;;26.30;16.37;;;3.60;96.30;;;;;;4397902;32;20157;-61
2021/03/10 04:44:11;;;;;;;28.43;18.53;;;3.70;96.40;;;;;;4404272;32;20213;-65
2021/03/10 04:46:38;;;;;;;27.77;18.40;;;3.70;96.50;;;;;;4403212;32;20155;-64
2021/03/10 04:49:09;;;;;;;31.53;18.97;;;3.60;96.50;;;;;;4401773;32;20300;-63
2021/03/10 04:51:36;;;;;;;31.13;18.90;;;3.60;96.50;;;;;;4402544;32;20172;-63
2021/03/10 04:54:02;;;;;;;30.40;19.03;;;3.70;96.50;;;;;;4402740;32;20214;-62
2021/03/10 04:56:29;;;;;;;30.13;18.93;;;3.70;96.50;;;;;;4405567;32;20213;-62
2021/03/10 04:58:55;;;;;;;35.37;19.40;;;3.80;96.60;;;;;;4399970;32;20162;-63
2021/03/10 05:01:22;;;;;;;29.43;18.77;;;3.80;96.60;;;;;;4404872;32;20235;-63
2021/03/10 05:03:49;;;;;;;28.97;18.80;;;3.80;96.50;;;;;;4399625;32;20491;-63
2021/03/10 05:06:16;;;;;;;35.40;18.77;;;3.80;96.50;;;;;;4401033;32;20163;-62
2021/03/10 05:08:43;;;;;;;33.50;20.67;;;3.80;96.50;;;;;;4392808;32;20259;-63
2021/03/10 05:11:09;;;;;;;32.87;20.43;;;3.90;96.50;;;;;;4394482;32;20195;-64
2021/03/10 05:13:35;;;;;;;34.83;19.50;;;3.80;96.50;;;;;;4407327;32;20170;-64
2021/03/10 05:16:02;;;;;;;28.93;18.87;;;3.90;96.50;;;;;;4404575;32;20669;-64
2021/03/10 05:18:28;;;;;;;32.20;19.73;;;3.90;96.50;;;;;;4405087;32;20172;-63
2021/03/10 05:20:56;;;;;;;32.53;19.73;;;3.90;96.50;;;;;;4404332;32;20163;-63
2021/03/10 05:23:22;;;;;;;35.53;19.40;;;3.90;96.60;;;;;;4394420;32;20249;-63
2021/03/10 05:25:49;;;;;;;36.13;20.67;;;3.90;96.60;;;;;;4398177;32;20179;-63
2021/03/10 05:28:15;;;;;;;34.47;21.37;;;3.90;96.60;;;;;;4402199;32;20219;-63
2021/03/10 05:30:41;;;;;;;41.53;23.73;;;3.90;96.60;;;;;;4402175;32;20174;-64
2021/03/10 05:33:08;;;;;;;34.57;21.53;;;3.90;96.80;;;;;;4399085;32;20255;-64
2021/03/10 05:35:34;;;;;;;40.37;24.33;;;3.90;96.70;;;;;;4394919;32;20214;-63
2021/03/10 05:38:01;;;;;;;38.27;23.30;;;3.90;96.70;;;;;;4405012;32;20154;-63
2021/03/10 05:40:28;;;;;;;42.57;24.47;;;4.00;96.70;;;;;;4403491;32;20184;-64
2021/03/10 05:42:54;;;;;;;42.67;24.43;;;3.90;96.80;;;;;;4404208;32;20228;-64
2021/03/10 05:45:21;;;;;;;45.23;25.80;;;3.90;96.90;;;;;;4403116;32;20180;-63
2021/03/10 05:47:47;;;;;;;43.60;25.77;;;3.90;96.90;;;;;;4402352;32;20183;-63
2021/03/10 05:50:15;;;;;;;47.93;26.90;;;3.90;97.00;;;;;;4400143;32;20201;-63
2021/03/10 05:52:43;;;;;;;45.67;25.57;;;3.90;96.90;;;;;;4407165;32;20175;-64
2021/03/10 05:55:12;;;;;;;44.23;25.93;;;3.90;96.90;;;;;;4399166;32;20571;-64
2021/03/10 05:57:40;;;;;;;46.00;26.37;;;4.00;96.90;;;;;;4398433;32;20156;-63
2021/03/10 06:00:09;;;;;;;45.30;25.67;;;4.00;97.00;;;;;;4403646;32;20148;-63
2021/03/10 06:02:36;;;;;;;50.90;28.57;;;4.00;96.90;;;;;;4406409;32;20172;-63
2021/03/10 06:05:03;;;;;;;52.37;29.97;;;4.10;97.00;;;;;;4396595;32;20219;-63
2021/03/10 06:07:30;;;;;;;48.27;27.93;;;4.10;97.00;;;;;;4400227;32;20176;-65
2021/03/10 06:09:58;;;;;;;52.07;31.03;;;4.10;97.00;;;;;;4400055;32;20159;-63
2021/03/10 06:12:37;;;;;;;53.27;29.63;;;4.10;96.90;;;;;;4401511;32;20220;-63
2021/03/10 06:15:04;;;;;;;53.07;28.50;;;4.10;97.00;;;;;;4401955;32;20173;-63
2021/03/10 06:17:41;;;;;;;58.90;32.00;;;4.20;97.10;;;;;;4402063;32;20162;-63
2021/03/10 06:20:08;;;;;;;56.40;31.10;;;4.20;97.00;;;;;;4397015;32;20215;-63
2021/03/10 06:22:35;;;;;;;58.37;33.63;;;4.20;97.10;;;;;;4401086;32;20183;-64
2021/03/10 06:25:02;;;;;;;58.63;32.27;;;4.20;97.00;;;;;;4401194;32;20194;-63
2021/03/10 06:27:29;;;;;;;57.33;32.33;;;4.20;97.10;;;;;;4402471;32;20216;-64
2021/03/10 06:29:57;;;;;;;68.87;34.60;;;4.20;97.20;;;;;;4401151;32;20275;-63
2021/03/10 06:32:24;;;;;;;60.87;33.60;;;4.20;97.20;;;;;;4400520;32;20283;-64
2021/03/10 06:34:52;;;;;;;60.23;33.17;;;4.30;97.20;;;;;;4400564;32;20152;-63
2021/03/10 06:37:27;;;;;;;63.17;33.43;;;4.30;97.20;;;;;;4402865;32;20147;-63
2021/03/10 06:39:54;;;;;;;58.70;33.03;;;4.30;97.00;;;;;;4403878;32;20185;-63
2021/03/10 06:42:23;;;;;;;61.13;33.37;;;4.30;97.00;;;;;;4400525;32;20260;-64
2021/03/10 06:44:52;;;;;;;63.27;35.40;;;4.40;97.00;;;;;;4400985;32;20214;-64
2021/03/10 06:47:19;;;;;;;64.13;36.00;;;4.40;97.00;;;;;;4401794;32;20927;-63
2021/03/10 06:49:50;;;;;;;69.57;37.17;;;4.40;97.00;;;;;;4400806;32;20175;-64
2021/03/10 06:52:17;;;;;;;69.47;36.67;;;4.50;97.00;;;;;;4401080;32;20662;-64
2021/03/10 06:54:55;;;;;;;69.70;36.43;;;4.50;96.90;;;;;;4401481;32;20219;-63
2021/03/10 06:57:22;;;;;;;64.17;35.30;;;4.50;96.80;;;;;;4401627;32;20218;-63
2021/03/10 06:59:50;;;;;;;61.50;36.43;;;4.60;96.70;;;;;;4401476;32;20548;-63
2021/03/10 07:02:18;;;;;;;59.30;34.73;;;4.70;96.70;;;;;;4397952;32;20524;-63
2021/03/10 07:04:48;;;;;;;66.87;35.60;;;4.70;96.60;;;;;;4399349;32;20226;-62
2021/03/10 07:07:16;;;;;;;68.17;37.33;;;4.70;96.50;;;;;;4398389;32;20172;-63
2021/03/10 07:09:43;;;;;;;69.50;36.20;;;4.70;96.30;;;;;;4400617;32;20540;-63
2021/03/10 07:12:11;;;;;;;65.03;35.37;;;4.80;96.40;;;;;;4398730;32;20228;-63
2021/03/10 07:14:38;;;;;;;66.73;35.57;;;4.80;96.40;;;;;;4398113;32;20215;-64
2021/03/10 07:17:06;;;;;;;66.83;34.93;;;4.80;96.40;;;;;;4401210;32;20180;-63
2021/03/10 07:19:33;;;;;;;66.63;36.57;;;4.90;96.30;;;;;;4392775;32;20283;-62
2021/03/10 07:22:02;;;;;;;70.23;39.13;;;4.90;96.40;;;;;;4399883;32;20160;-62
2021/03/10 07:24:34;;;;;;;67.37;38.40;;;4.90;96.30;;;;;;4399775;32;20238;-64
2021/03/10 07:27:05;;;;;;;68.77;39.00;;;5.00;96.20;;;;;;4399215;32;20219;-62
2021/03/10 07:29:36;;;;;;;62.40;36.20;;;5.00;96.20;;;;;;4403706;32;20154;-66
2021/03/10 07:32:04;;;;;;;63.60;36.43;;;5.10;96.00;;;;;;4399057;32;20196;-63
2021/03/10 07:34:31;;;;;;;69.47;36.53;;;5.10;96.00;;;;;;4404569;32;20487;-65
2021/03/10 07:36:58;;;;;;;70.87;37.77;;;5.20;95.80;;;;;;4400170;32;20179;-64
2021/03/10 07:39:27;;;;;;;67.90;35.77;;;5.20;95.80;;;;;;4399570;32;20580;-63
2021/03/10 07:41:55;;;;;;;65.43;37.63;;;5.20;95.80;;;;;;4396257;32;20185;-62
2021/03/10 07:44:24;;;;;;;74.60;39.43;;;5.20;95.80;;;;;;4396905;32;20190;-62
2021/03/10 07:47:04;;;;;;;67.00;37.23;;;5.30;95.80;;;;;;4393249;32;20161;-61
2021/03/10 07:49:31;;;;;;;62.73;37.47;;;5.30;95.70;;;;;;4395678;32;20190;-63
2021/03/10 07:52:11;;;;;;;63.00;37.03;;;5.40;95.60;;;;;;4399250;32;20184;-61
2021/03/10 07:54:40;;;;;;;70.37;36.73;;;5.40;95.70;;;;;;4400027;32;20487;-64
2021/03/10 07:57:12;;;;;;;65.20;38.37;;;5.50;95.70;;;;;;4398098;32;20170;-66
2021/03/10 08:00:12;;;;;;;65.40;39.90;;;5.60;95.50;;;;;;4399590;32;20215;-65
2021/03/10 08:02:46;;;;;;;67.13;36.93;;;5.70;95.40;;;;;;4394388;32;20167;-63
2021/03/10 08:05:23;;;;;;;67.70;39.53;;;5.70;95.30;;;;;;4404326;32;20248;-64
2021/03/10 08:07:50;;;;;;;71.63;37.87;;;5.80;95.20;;;;;;4401252;32;20186;-63
2021/03/10 08:10:30;;;;;;;64.67;37.77;;;5.90;95.10;;;;;;4396012;32;20179;-61
2021/03/10 08:12:57;;;;;;;64.77;39.63;;;5.90;94.90;;;;;;4402619;32;20217;-63
2021/03/10 08:15:26;;;;;;;66.67;39.17;;;5.90;94.80;;;;;;4395594;32;20171;-63
2021/03/10 08:18:03;;;;;;;65.17;39.60;;;6.00;95.00;;;;;;4401840;32;20240;-63
2021/03/10 08:20:32;;;;;;;66.23;39.27;;;6.10;94.80;;;;;;4399383;32;20140;-63
2021/03/10 08:23:01;;;;;;;66.70;39.53;;;6.20;94.60;;;;;;4396990;32;20203;-65
2021/03/10 08:25:28;;;;;;;68.40;39.03;;;6.20;94.60;;;;;;4398690;32;20159;-62
2021/03/10 08:27:55;;;;;;;60.27;37.37;;;6.30;94.50;;;;;;4402053;32;20541;-63
2021/03/10 08:30:24;;;;;;;59.90;37.43;;;6.40;94.30;;;;;;4398224;32;20642;-63
2021/03/10 08:32:51;;;;;;;58.20;36.60;;;6.40;94.30;;;;;;4399296;32;20191;-63
2021/03/10 08:35:20;;;;;;;66.77;38.70;;;6.40;94.10;;;;;;4393926;32;20193;-63
2021/03/10 08:37:54;;;;;;;63.50;38.53;;;6.50;93.80;;;;;;4396638;32;20194;-64
2021/03/10 08:40:25;;;;;;;65.53;38.73;;;6.60;94.00;;;;;;4398667;32;20211;-63
2021/03/10 08:42:51;;;;;;;64.50;37.97;;;6.60;94.00;;;;;;4350586;32;1673936;-62
2021/03/10 08:45:22;;;;;;;65.87;37.20;;;6.70;93.80;;;;;;4392164;32;20215;-64
2021/03/10 08:47:59;;;;;;;64.40;36.60;;;6.70;93.70;;;;;;4401380;32;20862;-65
2021/03/10 08:50:30;;;;;;;60.90;37.73;;;6.80;93.70;;;;;;4400687;32;20189;-65
2021/03/10 08:52:57;;;;;;;62.23;38.67;;;6.90;93.60;;;;;;4400753;32;20194;-63
2021/03/10 08:55:26;;;;;;;69.70;40.37;;;7.00;93.40;;;;;;4399010;32;20210;-64
2021/03/10 08:57:53;;;;;;;57.70;35.93;;;7.00;93.40;;;;;;4394236;32;20562;-65
2021/03/10 09:00:21;;;;;;;63.63;37.67;;;7.10;93.30;;;;;;4393790;32;20318;-63
2021/03/10 09:02:52;;;;;;;63.00;37.13;;;7.20;93.20;;;;;;4392048;32;20222;-61
2021/03/10 09:05:25;;;;;;;69.33;38.17;;;7.40;93.30;;;;;;4394287;32;20230;-65
2021/03/10 09:07:52;;;;;;;57.80;35.77;;;7.50;92.60;;;;;;4393147;32;20218;-63
2021/03/10 09:10:22;;;;;;;59.13;36.20;;;7.50;92.70;;;;;;4390652;32;20213;-65
2021/03/10 09:12:50;;;;;;;60.70;36.93;;;7.60;92.40;;;;;;4391067;32;20207;-62
2021/03/10 09:15:18;;;;;;;61.87;38.03;;;7.60;92.20;;;;;;4391351;32;20515;-61
2021/03/10 09:17:45;;;;;;;56.97;34.20;;;7.60;92.20;;;;;;4393787;32;20172;-64
2021/03/10 09:20:21;;;;;;;58.47;37.33;;;7.60;92.20;;;;;;4391190;32;20237;-62
2021/03/10 09:22:47;;;;;;;56.33;34.43;;;7.60;92.30;;;;;;4393566;32;20167;-63
2021/03/10 09:25:18;;;;;;;56.23;35.47;;;7.60;92.20;;;;;;4392508;32;20226;-65
2021/03/10 09:27:45;;;;;;;53.30;33.83;;;7.60;92.10;;;;;;4391152;32;20692;-63
2021/03/10 09:30:14;;;;;;;63.40;36.23;;;7.70;92.30;;;;;;4389751;32;20699;-65
2021/03/10 09:32:43;;;;;;;58.27;33.33;;;7.70;91.90;;;;;;4392521;32;20246;-62
2021/03/10 09:35:18;;;;;;;57.60;32.90;;;7.80;92.00;;;;;;4388220;32;20223;-64
2021/03/10 09:37:50;;;;;;;53.37;34.50;;;7.90;91.80;;;;;;4391046;32;20241;-64
2021/03/10 09:40:18;;;;;;;54.10;32.33;;;7.90;91.60;;;;;;4390445;32;20190;-65
2021/03/10 09:43:03;;;;;;;51.30;32.67;;;7.90;91.70;;;;;;4388594;32;20223;-62
2021/03/10 09:45:34;;;;;;;53.47;33.87;;;8.00;91.50;;;;;;4378744;32;20227;-63
2021/03/10 09:48:02;;;;;;;51.27;31.50;;;8.00;91.50;;;;;;4380237;32;20223;-62
2021/03/10 09:50:31;;;;;;;45.37;30.60;;;8.10;91.40;;;;;;4380450;32;20179;-67
2021/03/10 09:52:58;;;;;;;48.80;32.80;;;8.20;91.10;;;;;;4383153;32;20480;-63
2021/03/10 09:55:26;;;;;;;50.80;31.60;;;8.30;91.00;;;;;;4381633;32;21580;-64
2021/03/10 09:58:04;;;;;;;46.90;32.03;;;8.40;90.90;;;;;;4379738;32;20160;-65
2021/03/10 10:00:30;;;;;;;48.50;30.33;;;8.50;90.80;;;;;;4380598;32;20520;-65
2021/03/10 10:02:57;;;;;;;48.27;30.53;;;8.70;90.30;;;;;;4380201;32;20243;-62
2021/03/10 10:05:25;;;;;;;47.37;29.83;;;8.80;89.90;;;;;;4379750;32;20199;-65
2021/03/10 10:07:52;;;;;;;46.10;29.77;;;8.70;89.50;;;;;;4383002;32;20184;-65
2021/03/10 10:10:19;;;;;;;49.53;28.70;;;8.80;89.30;;;;;;4381742;32;20214;-63
2021/03/10 10:12:47;;;;;;;42.27;26.23;;;8.90;88.70;;;;;;4383612;32;20172;-66
2021/03/10 10:15:17;;;;;;;42.03;25.90;;;9.10;87.20;;;;;;4379618;32;20249;-63
2021/03/10 10:17:45;;;;;;;36.27;24.63;;;9.30;87.80;;;;;;4381896;32;20157;-63
2021/03/10 10:20:13;;;;;;;35.43;23.53;;;9.30;87.30;;;;;;4381349;32;20610;-63
2021/03/10 10:22:40;;;;;;;36.27;22.30;;;9.50;85.40;;;;;;4384668;32;20174;-63
2021/03/10 10:25:08;;;;;;;34.00;22.80;;;9.40;84.40;;;;;;4379921;32;20223;-68
2021/03/10 10:27:35;;;;;;;34.17;22.57;;;9.30;84.20;;;;;;4379884;32;20268;-66
2021/03/10 10:30:01;;;;;;;35.70;21.53;;;9.30;85.30;;;;;;4382826;32;20262;-64
2021/03/10 10:32:28;;;;;;;37.40;23.47;;;9.30;84.40;;;;;;4378904;32;20216;-66
2021/03/10 10:34:58;;;;;;;32.57;23.20;;;9.30;83.80;;;;;;4378901;32;20157;-64
2021/03/10 10:37:24;;;;;;;33.20;22.63;;;9.30;84.60;;;;;;4380211;32;20228;-67
2021/03/10 10:39:51;;;;;;;31.83;21.63;;;9.40;84.30;;;;;;4381849;32;20635;-64
2021/03/10 10:42:21;;;;;;;32.30;20.93;;;9.40;83.40;;;;;;4381002;32;20627;-64
2021/03/10 10:44:47;;;;;;;31.40;21.50;;;9.30;83.00;;;;;;4381489;32;20172;-63
2021/03/10 10:47:14;;;;;;;29.87;20.47;;;9.40;83.70;;;;;;4379545;32;20571;-64
2021/03/10 10:49:41;;;;;;;34.63;22.97;;;9.40;83.20;;;;;;4382036;32;20160;-64
2021/03/10 10:52:08;;;;;;;36.87;22.57;;;9.40;83.50;;;;;;4381465;32;20353;-63
2021/03/10 10:54:35;;;;;;;30.67;22.10;;;9.40;82.80;;;;;;4379950;32;20576;-64
2021/03/10 10:57:01;;;;;;;34.57;22.07;;;9.60;83.20;;;;;;4383611;32;20153;-63
2021/03/10 10:59:27;;;;;;;35.50;22.17;;;9.70;82.30;;;;;;4380602;32;20228;-65
2021/03/10 11:01:54;;;;;;;32.57;23.00;;;9.90;82.10;;;;;;4381923;32;20169;-66
2021/03/10 11:04:20;;;;;;;31.93;21.07;;;9.80;81.70;;;;;;4374707;32;20201;-63
2021/03/10 11:06:48;;;;;;;36.97;21.33;;;9.80;81.20;;;;;;4379364;32;20250;-63
2021/03/10 11:09:16;;;;;;;34.80;21.27;;;9.70;81.70;;;;;;4379117;32;20270;-67
2021/03/10 11:11:42;;;;;;;33.63;21.60;;;9.90;82.10;;;;;;4379603;32;20243;-63
2021/03/10 11:14:09;;;;;;;35.00;23.70;;;9.90;80.60;;;;;;4378011;32;20161;-63
2021/03/10 11:16:37;;;;;;;35.57;21.40;;;9.90;80.70;;;;;;4379670;32;20242;-64
2021/03/10 11:19:04;;;;;;;33.77;20.80;;;9.90;81.20;;;;;;4379893;32;20198;-63
2021/03/10 11:21:33;;;;;;;32.87;21.33;;;10.10;80.50;;;;;;4377213;32;20208;-64
2021/03/10 11:24:01;;;;;;;35.43;23.30;;;10.20;80.70;;;;;;4378520;32;20468;-63
2021/03/10 11:26:27;;;;;;;31.90;21.73;;;10.20;78.90;;;;;;4381119;32;20665;-63
2021/03/10 11:28:54;;;;;;;34.27;22.53;;;10.30;79.70;;;;;;4381828;32;21579;-66
2021/03/10 11:31:20;;;;;;;34.90;22.30;;;10.20;79.60;;;;;;4374977;32;20224;-64
2021/03/10 11:33:46;;;;;;;33.63;21.63;;;10.20;79.60;;;;;;4378281;32;20186;-67
2021/03/10 11:36:13;;;;;;;36.13;22.47;;;10.30;80.40;;;;;;4376270;32;20234;-65
2021/03/10 11:38:39;;;;;;;38.13;22.37;;;10.40;79.60;;;;;;4380899;32;20180;-66
2021/03/10 11:41:06;;;;;;;34.70;21.27;;;10.30;79.50;;;;;;4379261;32;20174;-66
2021/03/10 11:43:33;;;;;;;33.93;20.97;;;10.40;78.80;;;;;;4379408;32;20354;-64
2021/03/10 11:45:59;;;;;;;33.67;21.37;;;10.50;78.30;;;;;;4377553;32;20252;-65
2021/03/10 11:48:26;;;;;;;32.83;20.40;;;10.40;77.60;;;;;;4381131;32;20170;-65
2021/03/10 11:50:52;;;;;;;31.73;21.07;;;10.50;78.00;;;;;;4380056;32;20227;-68
2021/03/10 11:53:18;;;;;;;34.67;20.47;;;10.50;77.10;;;;;;4382100;32;20265;-66
2021/03/10 11:55:45;;;;;;;35.77;21.47;;;10.40;78.00;;;;;;4379385;32;20228;-69
2021/03/10 11:58:12;;;;;;;36.77;21.43;;;10.50;77.80;;;;;;4376775;32;20210;-66
2021/03/10 12:00:39;;;;;;;39.20;21.83;;;10.70;76.70;;;;;;4379738;32;20880;-65
2021/03/10 12:03:06;;;;;;;32.67;20.37;;;10.80;75.90;;;;;;4381098;32;20490;-67
2021/03/10 12:05:32;;;;;;;36.70;20.80;;;10.90;75.20;;;;;;4379532;32;20581;-63
2021/03/10 12:07:58;;;;;;;30.90;20.30;;;10.90;75.70;;;;;;4379148;32;20256;-69
2021/03/10 12:10:25;;;;;;;33.27;20.90;;;10.90;75.10;;;;;;4378950;32;20634;-65
2021/03/10 12:12:51;;;;;;;33.20;21.93;;;11.10;74.60;;;;;;4381066;32;20554;-63
2021/03/10 12:15:19;;;;;;;35.63;21.07;;;11.10;73.50;;;;;;4377752;32;20262;-66
2021/03/10 12:17:46;;;;;;;37.13;20.57;;;11.50;74.10;;;;;;4377899;32;20253;-67
2021/03/10 12:20:13;;;;;;;36.80;21.53;;;11.40;73.10;;;;;;4382682;32;20174;-63
2021/03/10 12:22:40;;;;;;;35.10;20.90;;;11.40;73.30;;;;;;4380416;32;20584;-67
2021/03/10 12:25:08;;;;;;;29.80;19.90;;;11.40;72.10;;;;;;4377174;32;20167;-63
2021/03/10 12:27:34;;;;;;;33.27;19.67;;;11.40;72.60;;;;;;4380105;32;20500;-65
2021/03/10 12:30:02;;;;;;;35.20;20.87;;;11.50;72.30;;;;;;4378709;32;20181;-66
2021/03/10 12:32:29;;;;;;;33.97;20.43;;;11.40;73.10;;;;;;4376286;32;20253;-64
2021/03/10 12:34:57;;;;;;;32.80;20.63;;;11.60;73.60;;;;;;4377872;32;20218;-64
2021/03/10 12:37:23;;;;;;;40.53;21.20;;;11.50;72.10;;;;;;4378838;32;20237;-63
2021/03/10 12:39:50;;;;;;;32.83;20.97;;;11.50;72.10;;;;;;4377808;32;20168;-65
2021/03/10 12:42:16;;;;;;;32.67;20.53;;;11.40;72.90;;;;;;4379060;32;20181;-65